Airfield :
LOGIN :

Register | Disclaimer

   EN    FR    IT 

 










Legend :    VFR   Marginal VFR   IFR   Intensive IFR   Very Intensive IFR
Visi :
Ceiling :
>= 8 km
>= 3000ft
5 to 8 km
1000 to 3000 ft
1500m to 5 km
500 to 1000 ft
800 to 1500m
200 to 500 ft
< 800m
< 200 ft
Symbols :   Thunderstorms  Fog  Heavy snow  Heavy precipitations  Wind > 20 kt
SIGMETs :     Misc.  Thunderstorms  Icing  Turbulence  Mountain Waves  Volcanic Ashes






- Airport Elevation : 778 ft
- IATA code : BRQ


LKTB - Brno-Turany

CURRENT METAR :
  • 020200Z 05007KT 9999 SCT015 00/M02 Q1022 NOSIG

EXPIRED METARs :
  • 020130Z 05005KT 9999 BKN014 00/M02 Q1023 NOSIG
  • 020100Z 04006KT 350V070 9999 BKN014 00/M02 Q1023 NOSIG
  • 020030Z 05006KT 020V080 9999 OVC015 00/M02 Q1023 NOSIG
  • 020000Z 05004KT 9999 OVC015 01/M02 Q1023 NOSIG
  • 012330Z 06006KT 9999 OVC014 01/M02 Q1023 NOSIG

TAF TAF LKTB
Valid from the 02 at 00:00 until the 03 at 06:00 UTC


012300Z 0200/0306 06008KT CAVOK
TEMPO 0200/0206 9999 BKN012
BECMG 0213/0215 9999 BKN020
TEMPO 0215/0300 2500 -SN BR OVC008



MET'MAP, your aeronautical weather chart ! - Copyright ORBIFLY December 2007 - Disclaimer

ORBIFLY MET'MAP TEAM :

Programming & Development : Alexandra Zaïnal
Original concept : Baudouin d'Aumeries
Technical & hardware support : Manuel Goepfert
Assistance : Marc-Olivier Méhu




SOURCES & CREDITS :

   NOAA